createdAt,value
2022-11-09T00:01:43.215Z,15.50
2022-11-09T00:04:10.533Z,15.51
2022-11-09T00:06:37.312Z,15.51
2022-11-09T00:09:07.856Z,15.47
2022-11-09T00:11:35.954Z,15.47
2022-11-09T00:14:04.436Z,15.46
2022-11-09T00:16:30.983Z,15.44
2022-11-09T00:18:57.599Z,15.43
2022-11-09T00:21:25.272Z,15.43
2022-11-09T00:23:52.599Z,15.44
2022-11-09T00:26:20.510Z,15.43
2022-11-09T00:28:47.213Z,15.43
2022-11-09T00:31:17.578Z,15.44
2022-11-09T00:33:50.816Z,15.44
2022-11-09T00:36:18.596Z,15.42
2022-11-09T00:38:49.377Z,15.44
2022-11-09T00:41:16.389Z,15.41
2022-11-09T00:43:42.991Z,15.39
2022-11-09T00:46:09.657Z,15.35
2022-11-09T00:48:36.822Z,15.35
2022-11-09T00:51:03.967Z,15.39
2022-11-09T00:53:31.143Z,15.36
2022-11-09T00:56:00.179Z,15.38
2022-11-09T00:58:32.262Z,15.37
2022-11-09T01:01:00.805Z,15.33
2022-11-09T01:03:30.260Z,15.32
2022-11-09T01:05:59.655Z,15.31
2022-11-09T01:08:26.604Z,15.30
2022-11-09T01:10:53.312Z,15.30
2022-11-09T01:13:20.291Z,15.31
2022-11-09T01:15:53.121Z,15.30
2022-11-09T01:18:20.935Z,15.36
2022-11-09T01:20:48.781Z,15.33
2022-11-09T01:23:17.127Z,15.33
2022-11-09T01:25:43.944Z,15.32
2022-11-09T01:28:11.486Z,15.29
2022-11-09T01:30:41.195Z,15.28
2022-11-09T01:33:09.900Z,15.30
2022-11-09T01:35:37.673Z,15.28
2022-11-09T01:38:05.633Z,15.30
2022-11-09T01:40:34.166Z,15.25
2022-11-09T01:43:09.050Z,15.25
2022-11-09T01:45:35.667Z,15.24
2022-11-09T01:48:12.571Z,15.20
2022-11-09T01:50:59.170Z,15.18
2022-11-09T01:53:31.681Z,15.15
2022-11-09T01:56:02.005Z,15.13
2022-11-09T01:58:31.939Z,15.16
2022-11-09T02:01:00.437Z,15.13
2022-11-09T02:03:36.419Z,15.10
2022-11-09T02:06:05.428Z,15.06
2022-11-09T02:08:32.073Z,15.02
2022-11-09T02:11:09.026Z,14.98
2022-11-09T02:13:38.724Z,15.00
2022-11-09T02:16:06.295Z,14.97
2022-11-09T02:18:33.112Z,14.93
2022-11-09T02:20:59.791Z,14.91
2022-11-09T02:23:26.915Z,14.89
2022-11-09T02:25:57.188Z,14.90
2022-11-09T02:28:24.295Z,14.86
2022-11-09T02:30:52.449Z,14.84
2022-11-09T02:33:19.351Z,14.86
2022-11-09T02:35:46.245Z,14.81
2022-11-09T02:38:14.625Z,14.79
2022-11-09T02:40:44.426Z,14.78
2022-11-09T02:43:12.212Z,14.83
2022-11-09T02:45:38.764Z,14.81
2022-11-09T02:48:05.799Z,14.73
2022-11-09T02:50:32.835Z,14.71
2022-11-09T02:52:59.421Z,14.72
2022-11-09T02:55:26.036Z,14.69
2022-11-09T02:57:52.695Z,14.69
2022-11-09T03:00:19.392Z,14.68
2022-11-09T03:02:46.026Z,14.69
2022-11-09T03:05:12.732Z,14.71
2022-11-09T03:07:39.374Z,14.69
2022-11-09T03:10:06.380Z,14.65
2022-11-09T03:12:33.011Z,14.68
2022-11-09T03:15:02.121Z,14.70
2022-11-09T03:17:28.991Z,14.69
2022-11-09T03:19:55.744Z,14.69
2022-11-09T03:22:22.436Z,14.72
2022-11-09T03:24:49.282Z,14.74
2022-11-09T03:27:16.590Z,14.75
2022-11-09T03:29:43.255Z,14.76
2022-11-09T03:32:10.467Z,14.78
2022-11-09T03:34:37.117Z,14.79
2022-11-09T03:37:04.101Z,14.83
2022-11-09T03:39:30.728Z,14.89
2022-11-09T03:41:57.314Z,14.88
2022-11-09T03:44:23.928Z,14.92
2022-11-09T03:46:50.616Z,14.96
2022-11-09T03:49:17.238Z,14.99
2022-11-09T03:51:43.857Z,15.01
2022-11-09T03:54:10.450Z,15.02
2022-11-09T03:56:37.084Z,15.02
2022-11-09T03:59:03.770Z,15.06
2022-11-09T04:01:30.644Z,15.05
2022-11-09T04:03:57.279Z,15.02
2022-11-09T04:06:23.979Z,15.03
2022-11-09T04:08:51.671Z,15.02
2022-11-09T04:11:18.474Z,15.07
2022-11-09T04:13:45.064Z,15.08
2022-11-09T04:16:12.542Z,15.09
2022-11-09T04:18:39.272Z,15.09
2022-11-09T04:21:05.912Z,15.07
2022-11-09T04:23:32.535Z,15.07
2022-11-09T04:25:59.847Z,15.07
2022-11-09T04:28:26.876Z,15.03
2022-11-09T04:30:53.487Z,15.05
2022-11-09T04:33:20.393Z,15.06
2022-11-09T04:35:50.960Z,15.08
2022-11-09T04:38:17.607Z,15.09
2022-11-09T04:40:44.247Z,15.08
2022-11-09T04:43:13.609Z,15.09
2022-11-09T04:45:40.652Z,15.08
2022-11-09T04:48:08.058Z,15.09
2022-11-09T04:50:35.077Z,15.07
2022-11-09T04:53:10.115Z,15.02
2022-11-09T04:55:37.138Z,14.98
2022-11-09T04:58:03.940Z,14.91
2022-11-09T05:00:30.805Z,14.86
2022-11-09T05:03:02.007Z,14.85
2022-11-09T05:05:29.348Z,14.81
2022-11-09T05:07:56.349Z,14.79
2022-11-09T05:10:22.944Z,14.79
2022-11-09T05:12:49.577Z,14.78
2022-11-09T05:15:16.191Z,14.76
2022-11-09T05:17:42.909Z,14.80
2022-11-09T05:20:10.150Z,14.79
2022-11-09T05:22:58.857Z,14.76
2022-11-09T05:25:25.697Z,14.77
2022-11-09T05:27:52.931Z,14.77
2022-11-09T05:30:20.050Z,14.77
2022-11-09T05:32:46.717Z,14.78
2022-11-09T05:35:13.391Z,14.80
2022-11-09T05:37:40.352Z,14.70
2022-11-09T05:40:08.276Z,14.61
2022-11-09T05:42:35.483Z,14.55
2022-11-09T05:45:27.907Z,14.48
2022-11-09T05:47:48.715Z,14.48
2022-11-09T05:50:16.240Z,14.46
2022-11-09T05:52:42.828Z,14.42
2022-11-09T05:55:09.503Z,14.42
2022-11-09T05:57:36.395Z,14.39
2022-11-09T06:00:09.883Z,14.31
2022-11-09T06:02:37.557Z,14.29
2022-11-09T06:05:04.382Z,14.33
2022-11-09T06:07:31.164Z,14.33
2022-11-09T06:09:57.731Z,14.32
2022-11-09T06:12:24.512Z,14.32
2022-11-09T06:14:51.200Z,14.32
2022-11-09T06:17:17.867Z,14.33
2022-11-09T06:19:44.555Z,14.33
2022-11-09T06:22:12.467Z,14.31
2022-11-09T06:24:45.494Z,14.30
2022-11-09T06:27:12.215Z,14.32
2022-11-09T06:29:38.978Z,14.35
2022-11-09T06:32:05.912Z,14.36
2022-11-09T06:34:32.483Z,14.41
2022-11-09T06:37:01.605Z,14.48
2022-11-09T06:39:28.169Z,14.49
2022-11-09T06:41:54.816Z,14.48
2022-11-09T06:44:21.407Z,14.45
2022-11-09T06:46:48.043Z,14.48
2022-11-09T06:49:14.662Z,14.52
2022-11-09T06:51:41.331Z,14.50
2022-11-09T06:54:08.113Z,14.49
2022-11-09T06:56:34.921Z,14.48
2022-11-09T06:59:01.561Z,14.47
2022-11-09T07:01:29.733Z,14.43
2022-11-09T07:03:56.499Z,14.40
2022-11-09T07:06:23.375Z,14.39
2022-11-09T07:08:56.601Z,14.40
2022-11-09T07:11:23.262Z,14.40
2022-11-09T07:13:54.803Z,14.35
2022-11-09T07:16:23.866Z,14.24
2022-11-09T07:18:50.501Z,14.24
2022-11-09T07:21:17.138Z,14.26
2022-11-09T07:23:43.886Z,14.23
2022-11-09T07:26:10.573Z,14.21
2022-11-09T07:28:37.189Z,14.20
2022-11-09T07:31:03.954Z,14.19
2022-11-09T07:33:32.796Z,14.12
2022-11-09T07:36:01.687Z,14.10
2022-11-09T07:38:29.371Z,14.14
2022-11-09T07:41:02.965Z,14.09
2022-11-09T07:43:34.593Z,14.08
2022-11-09T07:46:03.809Z,14.10
2022-11-09T07:48:30.407Z,14.10
2022-11-09T07:50:57.489Z,14.10
2022-11-09T07:53:24.273Z,14.06
2022-11-09T07:55:58.669Z,14.07
2022-11-09T07:58:25.514Z,14.07
2022-11-09T08:00:52.517Z,14.09
2022-11-09T08:03:20.900Z,14.12
2022-11-09T08:05:48.702Z,14.18
2022-11-09T08:08:21.394Z,14.17
2022-11-09T08:10:51.661Z,14.16
2022-11-09T08:13:19.660Z,14.21
2022-11-09T08:15:47.755Z,14.22
2022-11-09T08:18:16.886Z,14.28
2022-11-09T08:20:47.308Z,14.33
2022-11-09T08:23:15.488Z,14.33
2022-11-09T08:25:42.313Z,14.37
2022-11-09T08:28:14.331Z,14.35
2022-11-09T08:30:41.590Z,14.35
2022-11-09T08:33:08.271Z,14.34
2022-11-09T08:35:34.992Z,14.38
2022-11-09T08:38:04.020Z,14.37
2022-11-09T08:40:31.613Z,14.37
2022-11-09T08:43:07.728Z,14.37
2022-11-09T08:45:36.194Z,14.36
2022-11-09T08:48:03.728Z,14.35
2022-11-09T08:50:31.492Z,14.36
2022-11-09T08:52:58.597Z,14.35
2022-11-09T08:55:25.268Z,14.38
2022-11-09T08:57:59.098Z,14.37
2022-11-09T09:00:26.355Z,14.34
2022-11-09T09:02:53.340Z,14.40
2022-11-09T09:05:21.354Z,14.43
2022-11-09T09:07:48.013Z,14.50
2022-11-09T09:10:14.672Z,14.46
2022-11-09T09:12:41.391Z,14.50
2022-11-09T09:15:08.549Z,14.48
2022-11-09T09:17:35.733Z,14.52
2022-11-09T09:20:02.884Z,14.58
2022-11-09T09:22:32.512Z,14.66
2022-11-09T09:24:59.634Z,14.72
2022-11-09T09:27:26.387Z,14.71
2022-11-09T09:29:53.066Z,14.72
2022-11-09T09:32:19.767Z,14.68
2022-11-09T09:34:46.490Z,14.70
2022-11-09T09:37:19.469Z,14.75
2022-11-09T09:39:46.130Z,14.74
2022-11-09T09:42:19.226Z,14.78
2022-11-09T09:44:54.853Z,14.82
2022-11-09T09:47:38.281Z,14.81
2022-11-09T09:50:11.884Z,14.85
2022-11-09T09:53:22.554Z,14.78
2022-11-09T09:55:53.525Z,14.77
2022-11-09T09:58:46.152Z,14.83
2022-11-09T10:01:17.217Z,14.88
2022-11-09T10:03:43.950Z,14.96
2022-11-09T10:06:19.469Z,14.94
2022-11-09T10:08:58.120Z,14.96
2022-11-09T10:11:41.953Z,14.98
2022-11-09T10:14:19.249Z,14.94
2022-11-09T10:17:04.598Z,15.01
2022-11-09T10:19:34.204Z,15.08
2022-11-09T10:22:10.412Z,15.24
2022-11-09T10:24:48.518Z,15.38
2022-11-09T10:27:33.287Z,15.38
2022-11-09T10:30:03.411Z,15.56
2022-11-09T10:32:32.787Z,16.06
2022-11-09T10:35:14.593Z,16.74
2022-11-09T10:37:44.593Z,17.32
2022-11-09T10:40:41.524Z,17.72
2022-11-09T10:43:13.624Z,18.11
2022-11-09T10:46:18.253Z,18.24
2022-11-09T10:51:51.805Z,18.43
2022-11-09T10:54:32.718Z,18.21
2022-11-09T10:57:21.474Z,18.33
2022-11-09T10:59:58.315Z,18.71
2022-11-09T11:02:25.035Z,18.84
2022-11-09T11:05:07.098Z,19.63
2022-11-09T11:07:35.574Z,19.19
2022-11-09T11:10:14.711Z,18.81
2022-11-09T11:12:43.094Z,17.99
2022-11-09T11:15:37.065Z,17.69
2022-11-09T11:18:05.937Z,18.08
2022-11-09T11:20:37.459Z,18.69
2022-11-09T11:23:16.347Z,19.16
2022-11-09T11:25:58.249Z,19.47
2022-11-09T11:28:44.646Z,19.13
2022-11-09T11:31:15.768Z,19.39
2022-11-09T11:33:42.743Z,19.25
2022-11-09T11:36:31.064Z,19.17
2022-11-09T11:39:25.335Z,19.02
2022-11-09T11:42:22.837Z,18.98
2022-11-09T11:45:26.071Z,18.87
2022-11-09T11:48:06.787Z,18.32
2022-11-09T11:50:56.668Z,18.62
2022-11-09T11:53:27.366Z,18.63
2022-11-09T11:56:11.974Z,18.05
2022-11-09T11:59:23.062Z,18.22
2022-11-09T12:01:54.712Z,17.42
2022-11-09T12:04:41.264Z,17.21
2022-11-09T12:07:08.094Z,16.88
2022-11-09T12:10:12.512Z,16.49
2022-11-09T12:13:16.205Z,17.08
2022-11-09T12:16:10.471Z,16.75
2022-11-09T12:19:23.873Z,16.92
2022-11-09T12:22:09.671Z,17.02
2022-11-09T12:25:00.476Z,17.18
2022-11-09T12:27:37.519Z,17.31
2022-11-09T12:30:17.805Z,17.01
2022-11-09T12:33:03.763Z,16.58
2022-11-09T12:35:54.388Z,16.42
2022-11-09T12:38:37.222Z,16.30
2022-11-09T12:41:34.447Z,16.55
2022-11-09T12:44:05.760Z,16.81
2022-11-09T12:46:41.813Z,17.00
2022-11-09T12:49:22.055Z,16.44
2022-11-09T12:51:49.099Z,16.19
2022-11-09T12:54:15.943Z,16.06
2022-11-09T12:57:00.396Z,16.05
2022-11-09T12:59:27.113Z,16.10
2022-11-09T13:02:05.013Z,16.49
2022-11-09T13:04:31.880Z,16.52
2022-11-09T13:07:09.709Z,16.57
2022-11-09T13:09:44.717Z,16.40
2022-11-09T13:12:19.765Z,16.26
2022-11-09T13:14:46.832Z,16.18
2022-11-09T13:17:28.835Z,16.08
2022-11-09T13:19:56.361Z,16.10
2022-11-09T13:22:25.745Z,16.32
2022-11-09T13:25:00.577Z,16.32
2022-11-09T13:27:33.368Z,16.08
2022-11-09T13:30:23.849Z,16.30
2022-11-09T13:33:05.977Z,16.81
2022-11-09T13:35:42.999Z,16.70
2022-11-09T13:38:20.614Z,16.33
2022-11-09T13:40:48.737Z,16.26
2022-11-09T13:43:18.457Z,16.15
2022-11-09T13:46:13.635Z,16.10
2022-11-09T13:48:54.347Z,16.01
2022-11-09T13:51:36.188Z,15.93
2022-11-09T13:54:26.324Z,15.88
2022-11-09T13:56:53.417Z,15.76
2022-11-09T13:59:32.769Z,15.76
2022-11-09T14:02:01.111Z,15.79
2022-11-09T14:04:30.937Z,15.74
2022-11-09T14:07:22.327Z,15.76
2022-11-09T14:10:07.593Z,15.65
2022-11-09T14:12:42.181Z,15.53
2022-11-09T14:15:30.543Z,15.46
2022-11-09T14:18:08.044Z,15.44
2022-11-09T14:20:42.043Z,15.42
2022-11-09T14:23:20.431Z,15.38
2022-11-09T14:25:52.255Z,15.36
2022-11-09T14:28:23.773Z,15.34
2022-11-09T14:30:50.655Z,15.39
2022-11-09T14:33:29.372Z,15.51
2022-11-09T14:35:58.022Z,15.70
2022-11-09T14:38:30.104Z,15.88
2022-11-09T14:40:56.947Z,15.76
2022-11-09T14:43:40.886Z,15.63
2022-11-09T14:46:16.441Z,15.55
2022-11-09T14:48:53.321Z,15.47
2022-11-09T14:51:22.868Z,15.46
2022-11-09T14:53:50.337Z,15.50
2022-11-09T14:56:19.891Z,15.45
2022-11-09T14:58:46.956Z,15.38
2022-11-09T15:01:21.340Z,15.36
2022-11-09T15:04:14.045Z,15.31
2022-11-09T15:06:52.594Z,15.29
2022-11-09T15:09:22.676Z,15.19
2022-11-09T15:11:50.242Z,15.18
2022-11-09T15:14:19.862Z,15.15
2022-11-09T15:16:49.901Z,15.14
2022-11-09T15:19:31.932Z,15.02
2022-11-09T15:21:59.165Z,15.00
2022-11-09T15:24:28.237Z,15.01
2022-11-09T15:26:56.311Z,14.91
2022-11-09T15:29:27.880Z,14.86
2022-11-09T15:32:11.225Z,14.89
2022-11-09T15:34:40.675Z,14.86
2022-11-09T15:37:30.462Z,14.72
2022-11-09T15:39:58.600Z,14.70
2022-11-09T15:42:26.888Z,14.70
2022-11-09T15:44:58.981Z,14.63
2022-11-09T15:47:33.960Z,14.59
2022-11-09T15:50:04.197Z,14.52
2022-11-09T15:52:31.224Z,14.49
2022-11-09T15:54:57.888Z,14.44
2022-11-09T15:57:24.554Z,14.40
2022-11-09T15:59:52.090Z,14.38
2022-11-09T16:02:24.840Z,14.34
2022-11-09T16:04:57.651Z,14.36
2022-11-09T16:07:24.410Z,14.31
2022-11-09T16:09:51.051Z,14.23
2022-11-09T16:12:17.826Z,14.19
2022-11-09T16:14:50.817Z,14.16
2022-11-09T16:17:17.634Z,14.12
2022-11-09T16:19:46.561Z,14.11
2022-11-09T16:22:13.301Z,14.07
2022-11-09T16:24:40.646Z,14.05
2022-11-09T16:27:12.853Z,14.03
2022-11-09T16:29:49.078Z,14.03
2022-11-09T16:32:18.227Z,14.03
2022-11-09T16:34:57.748Z,14.01
2022-11-09T16:37:36.288Z,13.95
2022-11-09T16:40:08.962Z,13.95
2022-11-09T16:42:35.692Z,13.95
2022-11-09T16:45:12.082Z,13.96
2022-11-09T16:47:42.939Z,13.92
2022-11-09T16:50:10.235Z,13.88
2022-11-09T16:52:36.968Z,13.91
2022-11-09T16:55:04.112Z,13.90
2022-11-09T16:57:30.833Z,13.89
2022-11-09T16:59:57.560Z,13.93
2022-11-09T17:02:25.778Z,13.93
2022-11-09T17:04:53.600Z,13.87
2022-11-09T17:07:20.626Z,13.86
2022-11-09T17:09:47.400Z,13.78
2022-11-09T17:12:14.413Z,13.75
2022-11-09T17:14:47.085Z,13.72
2022-11-09T17:17:18.196Z,13.70
2022-11-09T17:19:48.034Z,13.68
2022-11-09T17:22:14.971Z,13.72
2022-11-09T17:24:42.179Z,13.71
2022-11-09T17:27:09.708Z,13.72
2022-11-09T17:29:39.846Z,13.71
2022-11-09T17:32:10.216Z,13.68
2022-11-09T17:34:43.553Z,13.67
2022-11-09T17:37:10.179Z,13.62
2022-11-09T17:39:36.838Z,13.59
2022-11-09T17:42:03.695Z,13.60
2022-11-09T17:44:30.418Z,13.57
2022-11-09T17:46:57.226Z,13.56
2022-11-09T17:49:23.871Z,13.53
2022-11-09T17:51:50.498Z,13.55
2022-11-09T17:54:17.284Z,13.55
2022-11-09T17:56:52.969Z,13.56
2022-11-09T17:59:19.829Z,13.56
2022-11-09T18:01:46.476Z,13.58
2022-11-09T18:04:18.488Z,13.62
2022-11-09T18:06:46.548Z,13.60
2022-11-09T18:09:40.420Z,13.61
2022-11-09T18:11:59.932Z,13.59
2022-11-09T18:14:28.631Z,13.53
2022-11-09T18:16:55.306Z,13.48
2022-11-09T18:19:22.110Z,13.49
2022-11-09T18:21:48.789Z,13.49
2022-11-09T18:24:15.602Z,13.47
2022-11-09T18:26:42.345Z,13.44
2022-11-09T18:29:09.112Z,13.42
2022-11-09T18:31:38.391Z,13.43
2022-11-09T18:34:05.700Z,13.40
2022-11-09T18:36:32.481Z,13.34
2022-11-09T18:38:59.206Z,13.32
2022-11-09T18:41:26.672Z,13.31
2022-11-09T18:43:54.250Z,13.33
2022-11-09T18:46:30.810Z,13.31
2022-11-09T18:48:57.535Z,13.34
2022-11-09T18:51:25.059Z,13.36
2022-11-09T18:53:51.940Z,13.44
2022-11-09T18:56:24.598Z,13.46
2022-11-09T18:58:53.133Z,13.45
2022-11-09T19:01:20.979Z,13.43
2022-11-09T19:03:47.670Z,13.40
2022-11-09T19:06:16.537Z,13.39
2022-11-09T19:09:01.725Z,13.38
2022-11-09T19:11:30.131Z,13.38
2022-11-09T19:13:57.528Z,13.35
2022-11-09T19:16:26.734Z,13.29
2022-11-09T19:18:53.837Z,13.27
2022-11-09T19:21:36.025Z,13.23
2022-11-09T19:24:03.337Z,13.19
2022-11-09T19:26:29.981Z,13.16
2022-11-09T19:28:56.594Z,13.14
2022-11-09T19:31:24.071Z,13.14
2022-11-09T19:33:52.314Z,13.10
2022-11-09T19:36:35.083Z,13.09
2022-11-09T19:39:02.343Z,13.04
2022-11-09T19:41:29.507Z,13.00
2022-11-09T19:43:58.837Z,13.00
2022-11-09T19:46:34.281Z,12.98
2022-11-09T19:49:01.516Z,12.98
2022-11-09T19:51:31.892Z,12.97
2022-11-09T19:53:59.964Z,12.98
2022-11-09T19:56:28.753Z,12.94
2022-11-09T19:58:57.890Z,12.89
2022-11-09T20:01:25.094Z,12.88
2022-11-09T20:03:53.457Z,12.85
2022-11-09T20:06:20.972Z,12.81
2022-11-09T20:08:47.898Z,12.80
2022-11-09T20:11:35.817Z,12.80
2022-11-09T20:14:03.721Z,12.82
2022-11-09T20:16:31.601Z,12.85
2022-11-09T20:18:58.808Z,12.81
2022-11-09T20:21:25.440Z,12.78
2022-11-09T20:23:52.205Z,12.71
2022-11-09T20:26:18.926Z,12.69
2022-11-09T20:28:45.630Z,12.58
2022-11-09T20:31:15.158Z,12.58
2022-11-09T20:33:42.475Z,12.60
2022-11-09T20:36:09.380Z,12.59
2022-11-09T20:38:36.449Z,12.58
2022-11-09T20:41:05.897Z,12.52
2022-11-09T20:43:33.044Z,12.46
2022-11-09T20:46:04.508Z,12.41
2022-11-09T20:48:52.880Z,12.34
2022-11-09T20:51:19.505Z,12.36
2022-11-09T20:53:47.200Z,12.35
2022-11-09T20:56:14.555Z,12.32
2022-11-09T20:58:41.640Z,12.35
2022-11-09T21:01:12.347Z,12.28
2022-11-09T21:03:39.211Z,12.28
2022-11-09T21:06:07.274Z,12.24
2022-11-09T21:08:34.279Z,12.28
2022-11-09T21:11:01.916Z,12.25
2022-11-09T21:13:28.922Z,12.22
2022-11-09T21:15:55.664Z,12.22
2022-11-09T21:18:22.662Z,12.17
2022-11-09T21:20:49.582Z,12.15
2022-11-09T21:23:16.201Z,12.21
2022-11-09T21:26:02.381Z,12.13
2022-11-09T21:28:48.030Z,12.15
2022-11-09T21:31:14.909Z,12.14
2022-11-09T21:33:41.842Z,12.13
2022-11-09T21:36:09.215Z,12.12
2022-11-09T21:38:37.089Z,12.17
2022-11-09T21:41:24.401Z,12.24
2022-11-09T21:43:54.922Z,12.22
2022-11-09T21:46:22.526Z,12.19
2022-11-09T21:48:49.934Z,12.22
2022-11-09T21:51:16.901Z,12.19
2022-11-09T21:53:43.546Z,12.16
2022-11-09T21:56:10.292Z,12.14
2022-11-09T21:58:37.021Z,12.11
2022-11-09T22:01:05.914Z,12.06
2022-11-09T22:03:36.129Z,12.06
2022-11-09T22:06:03.069Z,12.06
2022-11-09T22:08:30.036Z,12.03
2022-11-09T22:11:07.410Z,12.05
2022-11-09T22:13:52.803Z,12.07
2022-11-09T22:16:20.275Z,12.07
2022-11-09T22:19:05.592Z,12.04
2022-11-09T22:21:33.028Z,12.05
2022-11-09T22:24:00.684Z,12.05
2022-11-09T22:26:28.310Z,12.10
2022-11-09T22:28:55.504Z,12.04
2022-11-09T22:31:22.204Z,12.02
2022-11-09T22:33:48.964Z,12.02
2022-11-09T22:36:16.544Z,12.02
2022-11-09T22:38:48.210Z,11.97
2022-11-09T22:41:15.549Z,12.02
2022-11-09T22:43:43.731Z,12.02
2022-11-09T22:46:15.621Z,12.05
2022-11-09T22:48:43.874Z,12.09
2022-11-09T22:51:15.382Z,12.06
2022-11-09T22:53:42.350Z,12.09
2022-11-09T22:56:10.699Z,12.03
2022-11-09T22:58:37.431Z,12.04
2022-11-09T23:01:16.346Z,12.08
2022-11-09T23:03:43.476Z,12.07
2022-11-09T23:06:15.888Z,12.04
2022-11-09T23:08:42.793Z,12.05
2022-11-09T23:11:15.738Z,12.08
2022-11-09T23:13:43.591Z,12.08
2022-11-09T23:16:11.538Z,12.07
2022-11-09T23:18:54.012Z,12.06
2022-11-09T23:21:27.980Z,12.12
2022-11-09T23:23:56.613Z,12.12
2022-11-09T23:26:24.503Z,12.14
2022-11-09T23:28:51.233Z,12.14
2022-11-09T23:31:19.716Z,12.18
2022-11-09T23:33:49.554Z,12.23
2022-11-09T23:36:16.240Z,12.21
2022-11-09T23:38:42.924Z,12.20
2022-11-09T23:41:11.713Z,12.16
2022-11-09T23:43:39.189Z,12.14
2022-11-09T23:46:08.708Z,12.12
2022-11-09T23:48:35.685Z,12.16
2022-11-09T23:51:03.761Z,12.09
2022-11-09T23:53:31.288Z,12.12
2022-11-09T23:56:10.575Z,12.07
2022-11-09T23:58:37.968Z,12.05
